createdAt,value
2023-06-11T15:16:15.160Z,3.92
2023-06-11T15:18:42.022Z,3.40
2023-06-11T15:21:09.005Z,3.50
2023-06-11T15:23:35.887Z,3.30
2023-06-11T15:26:02.834Z,3.30
2023-06-11T15:28:30.600Z,3.33
2023-06-11T15:30:57.946Z,3.47
2023-06-11T15:33:24.795Z,3.45
2023-06-11T15:35:51.689Z,3.85
2023-06-11T15:38:19.694Z,3.65
2023-06-11T15:40:46.853Z,3.20
2023-06-11T15:43:13.849Z,3.55
2023-06-11T15:45:40.811Z,3.72
2023-06-11T15:48:07.735Z,3.85
2023-06-11T15:50:34.652Z,3.35
2023-06-11T15:53:01.980Z,3.40
2023-06-11T15:55:30.328Z,3.20
2023-06-11T15:57:57.263Z,3.40
2023-06-11T16:00:24.490Z,3.58
2023-06-11T16:02:51.434Z,2.90
2023-06-11T16:05:18.389Z,3.50
2023-06-11T16:07:45.653Z,3.38
2023-06-11T16:10:14.865Z,3.25
2023-06-11T16:12:44.011Z,2.90
2023-06-11T16:15:11.613Z,3.00
2023-06-11T16:17:38.618Z,3.38
2023-06-11T16:20:06.194Z,3.20
2023-06-11T16:22:33.426Z,3.20
2023-06-11T16:25:00.245Z,2.85
2023-06-11T16:27:27.077Z,3.33
2023-06-11T16:29:53.985Z,2.90
2023-06-11T16:32:20.958Z,3.00
2023-06-11T16:34:47.819Z,2.92
2023-06-11T16:37:14.767Z,3.08
2023-06-11T16:39:41.611Z,3.58
2023-06-11T16:42:08.660Z,3.05
2023-06-11T16:44:35.668Z,3.10
2023-06-11T16:47:02.620Z,3.38
2023-06-11T16:49:29.480Z,3.38
2023-06-11T16:51:57.604Z,2.95
2023-06-11T16:54:24.636Z,2.53
2023-06-11T16:56:51.532Z,3.47
2023-06-11T16:59:18.438Z,2.60
2023-06-11T17:01:45.316Z,2.83
2023-06-11T17:04:12.373Z,2.90
2023-06-11T17:06:39.632Z,2.75
2023-06-11T17:09:06.529Z,3.47
2023-06-11T17:11:33.568Z,3.40
2023-06-11T17:14:00.486Z,3.13
2023-06-11T17:16:27.433Z,2.60
2023-06-11T17:18:54.299Z,2.65
2023-06-11T17:21:21.143Z,2.65
2023-06-11T17:23:48.067Z,3.00
2023-06-11T17:26:17.342Z,3.00
2023-06-11T17:28:44.685Z,2.95
2023-06-11T17:31:13.826Z,3.80
2023-06-11T17:33:40.840Z,3.42
2023-06-11T17:36:09.265Z,3.47
2023-06-11T17:38:36.134Z,3.65
2023-06-11T17:41:03.015Z,2.85
2023-06-11T17:43:29.954Z,3.45
2023-06-11T17:45:56.865Z,3.22
2023-06-11T17:48:23.844Z,2.88
2023-06-11T17:50:50.675Z,3.00
2023-06-11T17:53:17.552Z,3.13
2023-06-11T17:55:44.426Z,3.10
2023-06-11T17:58:11.298Z,3.63
2023-06-11T18:00:38.208Z,3.08
2023-06-11T18:03:05.124Z,3.30
2023-06-11T18:05:33.863Z,2.97
2023-06-11T18:08:00.859Z,3.00
2023-06-11T18:10:27.774Z,3.40
2023-06-11T18:12:54.659Z,2.78
2023-06-11T18:17:51.540Z,3.22
2023-06-11T18:20:18.675Z,3.08
2023-06-11T18:22:45.874Z,2.97
2023-06-11T18:25:16.087Z,2.95
2023-06-11T18:27:43.060Z,2.83
2023-06-11T18:30:10.302Z,3.80
2023-06-11T18:32:38.821Z,2.88
2023-06-11T18:35:06.261Z,2.60
2023-06-11T18:37:33.250Z,2.67
2023-06-11T18:40:00.299Z,2.50
2023-06-11T18:42:27.178Z,3.03
2023-06-11T18:44:54.095Z,2.70
2023-06-11T18:47:21.014Z,2.70
2023-06-11T18:49:47.904Z,2.55
2023-06-11T18:52:14.954Z,2.97
2023-06-11T18:54:41.950Z,2.70
2023-06-11T18:57:09.606Z,2.60
2023-06-11T18:59:40.001Z,2.13
2023-06-11T19:02:08.449Z,2.83
2023-06-11T19:04:35.507Z,2.53
2023-06-11T19:07:04.342Z,2.88
2023-06-11T19:09:31.388Z,2.13
2023-06-11T19:11:58.231Z,2.80
2023-06-11T19:14:25.262Z,2.40
2023-06-11T19:16:52.474Z,3.28
2023-06-11T19:19:19.404Z,2.40
2023-06-11T19:21:47.113Z,2.80
2023-06-11T19:24:17.477Z,2.53
2023-06-11T19:26:44.793Z,2.35
2023-06-11T19:29:11.798Z,2.50
2023-06-11T19:31:38.959Z,2.45
2023-06-11T19:34:06.825Z,3.20
2023-06-11T19:36:33.883Z,2.72
2023-06-11T19:39:01.041Z,2.70
2023-06-11T19:41:30.351Z,2.90
2023-06-11T19:43:58.227Z,2.03
2023-06-11T19:46:28.631Z,2.65
2023-06-11T19:48:56.434Z,2.55
2023-06-11T19:51:23.283Z,2.40
2023-06-11T19:53:52.637Z,2.85
2023-06-11T19:56:20.494Z,2.95
2023-06-11T19:58:48.349Z,2.53
2023-06-11T20:01:17.135Z,2.70
2023-06-11T20:03:45.657Z,2.88
2023-06-11T20:06:13.412Z,2.50
2023-06-11T20:08:40.473Z,2.30
2023-06-11T20:11:12.035Z,2.63
2023-06-11T20:13:44.160Z,3.92
2023-06-11T20:16:12.191Z,3.67
2023-06-11T20:18:41.338Z,3.45
2023-06-11T20:21:08.422Z,3.42
2023-06-11T20:23:35.933Z,3.13
2023-06-11T20:26:02.900Z,2.38
2023-06-11T20:28:29.995Z,3.50
2023-06-11T20:30:56.967Z,2.63
2023-06-11T20:33:24.187Z,2.50
2023-06-11T20:35:51.566Z,2.55
2023-06-11T20:38:18.760Z,3.10
2023-06-11T20:40:46.559Z,2.50
2023-06-11T20:43:13.843Z,2.50
2023-06-11T20:45:51.240Z,2.53
2023-06-11T20:48:24.380Z,2.05
2023-06-11T20:50:51.586Z,2.20
2023-06-11T20:53:32.680Z,2.38
2023-06-11T20:56:01.617Z,2.75
2023-06-11T20:58:28.843Z,3.10
2023-06-11T21:00:55.755Z,2.58
2023-06-11T21:03:22.910Z,3.30
2023-06-11T21:05:53.832Z,2.53
2023-06-11T21:08:21.487Z,2.65
2023-06-11T21:10:48.562Z,3.13
2023-06-11T21:13:15.745Z,2.55
2023-06-11T21:15:42.877Z,2.53
2023-06-11T21:18:09.911Z,2.67
2023-06-11T21:20:39.171Z,2.53
2023-06-11T21:23:06.161Z,2.50
2023-06-11T21:25:33.121Z,2.10
2023-06-11T21:27:59.968Z,2.40
2023-06-11T21:30:27.315Z,3.35
2023-06-11T21:32:54.252Z,3.30
2023-06-11T21:35:21.312Z,2.55
2023-06-11T21:37:48.292Z,2.97
2023-06-11T21:40:15.471Z,2.45
2023-06-11T21:42:42.560Z,3.10
2023-06-11T21:45:10.097Z,3.15
2023-06-11T21:47:37.004Z,3.15
2023-06-11T21:50:06.722Z,3.00
2023-06-11T21:52:34.441Z,2.80
2023-06-11T21:55:02.009Z,3.10
2023-06-11T21:57:29.252Z,2.88
2023-06-11T21:59:56.164Z,2.80
2023-06-11T22:02:23.075Z,3.20
2023-06-11T22:04:50.009Z,3.38
2023-06-11T22:07:18.977Z,2.35
2023-06-11T22:09:45.973Z,3.00
2023-06-11T22:12:14.207Z,2.90
2023-06-11T22:14:41.290Z,2.65
2023-06-11T22:17:08.713Z,2.92
2023-06-11T22:19:38.150Z,2.83
2023-06-11T22:22:11.595Z,2.67
2023-06-11T22:24:39.492Z,2.83
2023-06-11T22:27:08.098Z,2.95
2023-06-11T22:29:35.369Z,3.17
2023-06-11T22:32:02.501Z,2.60
2023-06-11T22:34:29.609Z,2.90
2023-06-11T22:36:56.605Z,3.13
2023-06-11T22:39:23.415Z,2.40
2023-06-11T22:41:50.354Z,2.58
2023-06-11T22:44:17.632Z,2.60
2023-06-11T22:46:44.721Z,2.58
2023-06-11T22:49:12.668Z,2.17
2023-06-11T22:51:39.631Z,2.65
2023-06-11T22:54:09.355Z,2.92
2023-06-11T22:56:36.604Z,2.55
2023-06-11T22:59:03.471Z,2.53
2023-06-11T23:01:30.737Z,3.08
2023-06-11T23:03:57.734Z,3.15
2023-06-11T23:06:25.696Z,2.60
2023-06-11T23:08:52.694Z,1.75
2023-06-11T23:11:19.635Z,1.98
2023-06-11T23:13:46.625Z,1.95
2023-06-11T23:16:15.045Z,1.70
2023-06-11T23:18:43.271Z,1.70
2023-06-11T23:21:11.350Z,2.10
2023-06-11T23:23:42.597Z,1.85
2023-06-11T23:26:10.888Z,2.00
2023-06-11T23:28:38.127Z,1.90
2023-06-11T23:31:04.975Z,2.30
2023-06-11T23:33:32.046Z,2.05
2023-06-11T23:36:02.249Z,1.73
2023-06-11T23:38:29.453Z,2.00
2023-06-11T23:40:56.369Z,1.55
2023-06-11T23:43:24.368Z,1.63
2023-06-11T23:45:51.227Z,2.15
2023-06-11T23:48:18.146Z,2.20
2023-06-11T23:50:45.699Z,1.70
2023-06-11T23:53:12.569Z,1.70
2023-06-11T23:55:43.181Z,1.65
2023-06-11T23:58:21.486Z,1.88
